Time;durP1;ratioP1;P1;durP2;ratioP2;P2;SDS_P1;SDS_P2;PMS_P1;PMS_P2;Temp;Humidity;BMP_temperature;BMP_pressure;BME280_temperature;BME280_humidity;BME280_pressure;Samples;Min_cycle;Max_cycle;Signal;HPM_P1;HPM_P2
2023/08/28 00:00:17;;;;;;;2.77;1.70;;;;;;;;;;5053590;28;20606;-73
2023/08/28 00:02:42;;;;;;;3.63;2.00;;;;;;;;;;5053588;28;20258;-73
2023/08/28 00:05:07;;;;;;;6.93;1.90;;;;;;;;;;5052942;28;20025;-73
2023/08/28 00:07:33;;;;;;;2.00;1.70;;;;;;;;;;5052628;28;20036;-73
2023/08/28 00:09:59;;;;;;;3.72;1.70;;;;;;;;;;5053114;28;20269;-73
2023/08/28 00:12:24;;;;;;;5.25;1.92;;;;;;;;;;5053033;28;20017;-73
2023/08/28 00:14:49;;;;;;;5.40;2.10;;;;;;;;;;5052302;28;20029;-73
2023/08/28 00:17:16;;;;;;;4.97;1.95;;;;;;;;;;5053279;28;20388;-73
2023/08/28 00:19:41;;;;;;;2.78;1.77;;;;;;;;;;5054197;28;20025;-73
2023/08/28 00:22:06;;;;;;;2.07;1.80;;;;;;;;;;5053283;28;20472;-73
2023/08/28 00:24:32;;;;;;;5.00;1.97;;;;;;;;;;5052358;28;20324;-73
2023/08/28 00:26:57;;;;;;;2.00;1.60;;;;;;;;;;5052414;28;20258;-73
2023/08/28 00:29:22;;;;;;;4.63;1.93;;;;;;;;;;5052013;28;20305;-75
2023/08/28 00:31:47;;;;;;;3.63;1.63;;;;;;;;;;5053794;28;20257;-72
2023/08/28 00:34:13;;;;;;;2.88;1.80;;;;;;;;;;5053281;28;20276;-73
2023/08/28 00:36:38;;;;;;;5.50;2.03;;;;;;;;;;5051694;28;20144;-73
2023/08/28 00:39:03;;;;;;;2.30;1.92;;;;;;;;;;5051378;28;20292;-73
2023/08/28 00:41:29;;;;;;;3.00;1.88;;;;;;;;;;5052859;28;20040;-73
2023/08/28 00:43:54;;;;;;;2.88;1.70;;;;;;;;;;5053292;28;20119;-73
2023/08/28 00:46:19;;;;;;;8.32;2.15;;;;;;;;;;5053241;28;20373;-73
2023/08/28 00:48:45;;;;;;;6.57;1.90;;;;;;;;;;5057050;28;20017;-73
2023/08/28 00:51:10;;;;;;;5.25;2.30;;;;;;;;;;5056624;28;20025;-73
2023/08/28 00:53:36;;;;;;;4.40;2.25;;;;;;;;;;5055615;28;20402;-73
2023/08/28 00:56:01;;;;;;;4.00;1.70;;;;;;;;;;5056316;28;20028;-73
2023/08/28 00:58:27;;;;;;;3.45;1.60;;;;;;;;;;5056673;28;20507;-73
2023/08/28 01:00:52;;;;;;;2.75;1.83;;;;;;;;;;5056531;28;20033;-73
2023/08/28 01:03:18;;;;;;;3.70;1.73;;;;;;;;;;5056690;28;20029;-73
2023/08/28 01:06:02;;;;;;;4.77;1.93;;;;;;;;;;5055591;28;20296;-73
2023/08/28 01:08:54;;;;;;;4.82;1.90;;;;;;;;;;5056776;28;20289;-73
2023/08/28 01:12:02;;;;;;;2.53;1.80;;;;;;;;;;5057181;28;20025;-74
2023/08/28 01:14:29;;;;;;;2.00;1.80;;;;;;;;;;5046265;28;20099;-73
2023/08/28 01:16:57;;;;;;;3.13;1.90;;;;;;;;;;5056542;28;20029;-73
2023/08/28 01:19:40;;;;;;;4.00;1.95;;;;;;;;;;5056923;28;20032;-73
2023/08/28 01:22:16;;;;;;;4.03;2.10;;;;;;;;;;5056762;28;20025;-73
2023/08/28 01:24:49;;;;;;;5.03;2.10;;;;;;;;;;5054848;28;20044;-73
2023/08/28 01:27:16;;;;;;;2.47;2.00;;;;;;;;;;5056626;28;20064;-73
2023/08/28 01:29:41;;;;;;;4.00;1.80;;;;;;;;;;5054964;28;20025;-73
2023/08/28 01:32:06;;;;;;;2.70;1.92;;;;;;;;;;5056598;28;20025;-73
2023/08/28 01:34:32;;;;;;;3.08;1.90;;;;;;;;;;5056031;28;20025;-73
2023/08/28 01:37:07;;;;;;;3.10;1.85;;;;;;;;;;5056198;28;20024;-73
2023/08/28 01:39:40;;;;;;;3.05;2.17;;;;;;;;;;5055961;28;20063;-73
2023/08/28 01:42:07;;;;;;;3.47;1.77;;;;;;;;;;5054585;28;20036;-74
2023/08/28 01:44:34;;;;;;;4.05;2.08;;;;;;;;;;5055649;28;20025;-75
2023/08/28 01:47:00;;;;;;;3.83;1.98;;;;;;;;;;5054862;28;20369;-72
2023/08/28 01:49:29;;;;;;;5.80;2.25;;;;;;;;;;5055726;28;20028;-73
2023/08/28 01:51:54;;;;;;;2.75;1.98;;;;;;;;;;5055662;28;20016;-73
2023/08/28 01:54:20;;;;;;;3.63;2.20;;;;;;;;;;5055770;28;20100;-73
2023/08/28 01:56:45;;;;;;;3.40;1.98;;;;;;;;;;5053605;28;20457;-72
2023/08/28 01:59:10;;;;;;;3.00;1.83;;;;;;;;;;5055249;28;20020;-74
2023/08/28 02:01:36;;;;;;;3.35;1.92;;;;;;;;;;5056042;28;20029;-73
2023/08/28 02:04:01;;;;;;;4.63;1.90;;;;;;;;;;5055672;28;20476;-73
2023/08/28 02:06:27;;;;;;;6.82;2.33;;;;;;;;;;5054145;28;20373;-72
2023/08/28 02:08:52;;;;;;;3.42;1.85;;;;;;;;;;5054062;28;20048;-73
2023/08/28 02:11:17;;;;;;;4.30;1.98;;;;;;;;;;5053953;28;20029;-73
2023/08/28 02:13:42;;;;;;;2.33;1.90;;;;;;;;;;5056010;28;20032;-73
2023/08/28 02:16:08;;;;;;;4.50;1.90;;;;;;;;;;5055551;28;20349;-75
2023/08/28 02:18:33;;;;;;;4.07;2.00;;;;;;;;;;5055080;28;20143;-74
2023/08/28 02:20:59;;;;;;;4.82;1.85;;;;;;;;;;5054945;28;20025;-74
2023/08/28 02:23:28;;;;;;;3.20;1.95;;;;;;;;;;5053661;28;20110;-74
2023/08/28 02:25:54;;;;;;;3.13;1.90;;;;;;;;;;5055153;28;20389;-74
2023/08/28 02:28:19;;;;;;;3.63;2.00;;;;;;;;;;5055109;28;20025;-74
2023/08/28 02:30:45;;;;;;;2.28;1.65;;;;;;;;;;5055316;28;20033;-74
2023/08/28 02:33:11;;;;;;;4.25;1.90;;;;;;;;;;5054572;28;20037;-74
2023/08/28 02:35:36;;;;;;;3.63;2.00;;;;;;;;;;5053207;28;20439;-74
2023/08/28 02:38:01;;;;;;;1.75;1.65;;;;;;;;;;5053312;28;20028;-74
2023/08/28 02:40:27;;;;;;;3.40;1.90;;;;;;;;;;5055151;28;20422;-73
2023/08/28 02:42:53;;;;;;;3.35;1.80;;;;;;;;;;5054883;28;20017;-73
2023/08/28 02:45:18;;;;;;;2.47;1.63;;;;;;;;;;5053578;28;20025;-74
2023/08/28 02:47:43;;;;;;;2.97;1.95;;;;;;;;;;5053055;28;20495;-73
2023/08/28 02:50:09;;;;;;;8.00;1.80;;;;;;;;;;5053561;28;20021;-73
2023/08/28 02:52:35;;;;;;;4.50;2.00;;;;;;;;;;5055051;28;20700;-73
2023/08/28 02:55:00;;;;;;;4.43;2.00;;;;;;;;;;5053316;28;20035;-73
2023/08/28 02:57:25;;;;;;;4.13;1.95;;;;;;;;;;5052558;28;20708;-73
2023/08/28 02:59:51;;;;;;;4.30;1.90;;;;;;;;;;5055018;28;20028;-73
2023/08/28 03:02:16;;;;;;;4.15;2.05;;;;;;;;;;5054787;28;20021;-73
2023/08/28 03:04:44;;;;;;;4.10;2.00;;;;;;;;;;5054867;28;20065;-73
2023/08/28 03:07:09;;;;;;;3.85;2.10;;;;;;;;;;5054589;28;20032;-73
2023/08/28 03:09:34;;;;;;;2.42;1.67;;;;;;;;;;5054623;28;20021;-73
2023/08/28 03:12:00;;;;;;;3.10;1.70;;;;;;;;;;5055294;28;20376;-74
2023/08/28 03:14:25;;;;;;;3.30;1.70;;;;;;;;;;5054868;28;20048;-74
2023/08/28 03:16:51;;;;;;;2.90;1.65;;;;;;;;;;5054636;28;20117;-73
2023/08/28 03:19:16;;;;;;;6.15;2.05;;;;;;;;;;5054698;28;20033;-74
2023/08/28 03:21:41;;;;;;;1.85;1.60;;;;;;;;;;5055231;28;20029;-74
2023/08/28 03:24:06;;;;;;;2.50;1.73;;;;;;;;;;5053919;28;20043;-73
2023/08/28 03:26:33;;;;;;;4.53;1.75;;;;;;;;;;5053681;28;20343;-74
2023/08/28 03:28:58;;;;;;;4.38;1.80;;;;;;;;;;5053507;28;20051;-74
2023/08/28 03:31:25;;;;;;;4.50;1.83;;;;;;;;;;5053672;28;20048;-74
2023/08/28 03:33:50;;;;;;;2.72;1.88;;;;;;;;;;5052205;28;20093;-73
2023/08/28 03:36:16;;;;;;;7.40;2.00;;;;;;;;;;5053869;28;20538;-73
2023/08/28 03:38:41;;;;;;;3.00;1.70;;;;;;;;;;5053959;28;20278;-73
2023/08/28 03:41:07;;;;;;;2.47;1.70;;;;;;;;;;5053737;28;20480;-73
2023/08/28 03:43:32;;;;;;;2.42;1.77;;;;;;;;;;5054176;28;20269;-73
2023/08/28 03:45:57;;;;;;;2.33;1.80;;;;;;;;;;5053520;28;20033;-73
2023/08/28 03:48:23;;;;;;;2.50;1.70;;;;;;;;;;5053373;28;20270;-73
2023/08/28 03:50:48;;;;;;;3.00;1.90;;;;;;;;;;5053467;28;20017;-73
2023/08/28 03:53:13;;;;;;;3.22;2.05;;;;;;;;;;5051956;28;20543;-73
2023/08/28 03:55:39;;;;;;;3.50;1.58;;;;;;;;;;5053711;28;20021;-73
2023/08/28 03:58:04;;;;;;;2.83;1.90;;;;;;;;;;5053168;28;20029;-73
2023/08/28 04:00:31;;;;;;;5.30;1.90;;;;;;;;;;5053234;28;20258;-73
2023/08/28 04:02:56;;;;;;;3.53;2.00;;;;;;;;;;5053160;28;20103;-73
2023/08/28 04:05:22;;;;;;;2.63;1.73;;;;;;;;;;5053467;28;20468;-73
2023/08/28 04:07:48;;;;;;;5.38;2.10;;;;;;;;;;5053082;28;20029;-73
2023/08/28 04:10:13;;;;;;;2.33;1.65;;;;;;;;;;5054194;28;20033;-73
2023/08/28 04:12:39;;;;;;;4.57;2.35;;;;;;;;;;5053968;28;20155;-73
2023/08/28 04:15:07;;;;;;;3.65;1.92;;;;;;;;;;5054172;28;20028;-73
2023/08/28 04:17:33;;;;;;;2.90;2.10;;;;;;;;;;5052586;28;20024;-73
2023/08/28 04:19:58;;;;;;;3.53;1.95;;;;;;;;;;5054271;28;20029;-73
2023/08/28 04:22:23;;;;;;;2.30;1.80;;;;;;;;;;5056272;28;20025;-74
2023/08/28 04:24:52;;;;;;;2.67;2.00;;;;;;;;;;5058669;28;20262;-73
2023/08/28 04:27:18;;;;;;;3.40;1.90;;;;;;;;;;5057536;28;20025;-73
2023/08/28 04:29:43;;;;;;;5.78;2.40;;;;;;;;;;5057825;28;20540;-73
2023/08/28 04:32:09;;;;;;;4.32;1.83;;;;;;;;;;5055969;28;20021;-73
2023/08/28 04:34:35;;;;;;;2.95;1.80;;;;;;;;;;5057416;28;20037;-73
2023/08/28 04:37:00;;;;;;;2.17;1.65;;;;;;;;;;5057416;28;20041;-73
2023/08/28 04:39:26;;;;;;;2.88;2.05;;;;;;;;;;5057377;28;20462;-73
2023/08/28 04:41:52;;;;;;;6.35;1.83;;;;;;;;;;5057511;28;20025;-73
2023/08/28 04:44:18;;;;;;;2.58;1.60;;;;;;;;;;5055436;28;20407;-73
2023/08/28 04:46:43;;;;;;;4.75;1.88;;;;;;;;;;5056909;28;20021;-73
2023/08/28 04:49:09;;;;;;;2.70;1.73;;;;;;;;;;5057664;28;20036;-73
2023/08/28 04:51:35;;;;;;;2.35;1.83;;;;;;;;;;5056398;28;20025;-73
2023/08/28 04:54:00;;;;;;;2.50;1.83;;;;;;;;;;5055377;28;20167;-73
2023/08/28 04:56:25;;;;;;;3.77;1.80;;;;;;;;;;5056351;28;20051;-72
2023/08/28 04:58:51;;;;;;;2.75;1.60;;;;;;;;;;5056406;28;20265;-73
2023/08/28 05:01:16;;;;;;;4.65;1.90;;;;;;;;;;5056016;28;20109;-73
2023/08/28 05:03:41;;;;;;;3.60;2.03;;;;;;;;;;5056225;28;20017;-73
2023/08/28 05:06:07;;;;;;;1.67;1.57;;;;;;;;;;5056432;28;20801;-72
2023/08/28 05:08:32;;;;;;;2.88;1.95;;;;;;;;;;5056487;28;20629;-73
2023/08/28 05:10:57;;;;;;;5.47;2.20;;;;;;;;;;5057032;28;20027;-73
2023/08/28 05:13:23;;;;;;;2.78;1.80;;;;;;;;;;5056366;28;20021;-73
2023/08/28 05:15:48;;;;;;;3.60;1.60;;;;;;;;;;5056685;28;20116;-77
2023/08/28 05:18:14;;;;;;;8.27;1.83;;;;;;;;;;5055970;28;20258;-74
2023/08/28 05:20:39;;;;;;;2.70;1.48;;;;;;;;;;5057070;28;20082;-74
2023/08/28 05:23:04;;;;;;;6.03;1.70;;;;;;;;;;5056357;28;20063;-73
2023/08/28 05:25:30;;;;;;;3.08;1.63;;;;;;;;;;5055566;28;20388;-72
2023/08/28 05:27:55;;;;;;;3.22;1.45;;;;;;;;;;5055882;28;20025;-75
2023/08/28 05:30:21;;;;;;;3.88;1.52;;;;;;;;;;5055447;28;20082;-75
2023/08/28 05:32:46;;;;;;;2.78;1.50;;;;;;;;;;5056774;28;20104;-75
2023/08/28 05:35:11;;;;;;;2.30;1.45;;;;;;;;;;5055395;28;20029;-75
2023/08/28 05:37:37;;;;;;;1.75;1.13;;;;;;;;;;5053945;28;20036;-75
2023/08/28 05:40:04;;;;;;;3.17;1.40;;;;;;;;;;5055282;28;20021;-74
2023/08/28 05:42:29;;;;;;;2.75;1.35;;;;;;;;;;5055319;28;20025;-75
2023/08/28 05:44:55;;;;;;;2.90;1.60;;;;;;;;;;5055659;28;20429;-74
2023/08/28 05:47:20;;;;;;;3.77;1.60;;;;;;;;;;5054984;28;20436;-75
2023/08/28 05:49:45;;;;;;;3.10;1.43;;;;;;;;;;5054638;28;20269;-73
2023/08/28 05:52:10;;;;;;;2.17;1.37;;;;;;;;;;5052902;28;20284;-77
2023/08/28 05:54:36;;;;;;;1.93;1.50;;;;;;;;;;5055091;28;20258;-75
2023/08/28 05:57:02;;;;;;;3.58;1.42;;;;;;;;;;5054969;28;20344;-75
2023/08/28 05:59:27;;;;;;;5.88;1.50;;;;;;;;;;5054569;28;20488;-76
2023/08/28 06:01:53;;;;;;;3.03;1.60;;;;;;;;;;5053804;28;20036;-76
2023/08/28 06:04:18;;;;;;;2.53;1.30;;;;;;;;;;5052669;28;20028;-76
2023/08/28 06:06:43;;;;;;;3.95;1.65;;;;;;;;;;5050987;28;20516;-76
2023/08/28 06:09:09;;;;;;;3.10;1.50;;;;;;;;;;5053677;28;20029;-76
2023/08/28 06:11:35;;;;;;;3.17;1.60;;;;;;;;;;5054291;28;20813;-76
2023/08/28 06:14:00;;;;;;;3.85;1.40;;;;;;;;;;5054643;28;20033;-76
2023/08/28 06:16:25;;;;;;;2.25;1.20;;;;;;;;;;5054332;28;20408;-75
2023/08/28 06:18:51;;;;;;;3.38;1.40;;;;;;;;;;5054341;28;20028;-76
2023/08/28 06:21:16;;;;;;;4.07;1.60;;;;;;;;;;5053646;28;20551;-75
2023/08/28 06:23:41;;;;;;;3.83;1.35;;;;;;;;;;5054333;28;20028;-76
2023/08/28 06:26:07;;;;;;;8.70;1.40;;;;;;;;;;5054347;28;20392;-75
2023/08/28 06:28:33;;;;;;;11.23;1.38;;;;;;;;;;5054319;28;20025;-76
2023/08/28 06:30:58;;;;;;;5.72;1.30;;;;;;;;;;5054236;28;20092;-76
2023/08/28 06:33:24;;;;;;;4.15;1.30;;;;;;;;;;5053120;28;20025;-76
2023/08/28 06:35:49;;;;;;;2.90;1.37;;;;;;;;;;5053890;28;20029;-76
2023/08/28 06:38:14;;;;;;;6.25;1.25;;;;;;;;;;5054071;28;20670;-76
2023/08/28 06:40:40;;;;;;;7.40;1.50;;;;;;;;;;5054080;28;20427;-75
2023/08/28 06:43:05;;;;;;;2.67;1.13;;;;;;;;;;5053489;28;20258;-76
2023/08/28 06:45:31;;;;;;;3.78;1.30;;;;;;;;;;5053902;28;20480;-75
2023/08/28 06:47:57;;;;;;;3.72;1.13;;;;;;;;;;5053874;28;20029;-75
2023/08/28 06:50:24;;;;;;;2.20;1.30;;;;;;;;;;5053838;28;20025;-76
2023/08/28 06:52:49;;;;;;;3.00;1.30;;;;;;;;;;5053768;28;20111;-76
2023/08/28 06:55:15;;;;;;;3.08;1.30;;;;;;;;;;5052342;28;20119;-76
2023/08/28 06:57:40;;;;;;;5.43;1.30;;;;;;;;;;5053510;28;20017;-75
2023/08/28 07:00:06;;;;;;;3.50;2.08;;;;;;;;;;5053710;28;20016;-76
2023/08/28 07:02:32;;;;;;;2.13;1.30;;;;;;;;;;5053562;28;20025;-76
2023/08/28 07:04:57;;;;;;;2.28;1.10;;;;;;;;;;5053653;28;20048;-75
2023/08/28 07:07:22;;;;;;;2.58;1.35;;;;;;;;;;5053178;28;20460;-75
2023/08/28 07:09:48;;;;;;;2.58;1.27;;;;;;;;;;5053307;28;20216;-75
2023/08/28 07:12:13;;;;;;;1.83;1.30;;;;;;;;;;5055456;28;20017;-75
2023/08/28 07:14:38;;;;;;;2.22;1.17;;;;;;;;;;5053354;28;20036;-75
2023/08/28 07:17:03;;;;;;;1.77;1.27;;;;;;;;;;5053043;28;20025;-75
2023/08/28 07:19:29;;;;;;;4.35;1.30;;;;;;;;;;5052198;28;20028;-75
2023/08/28 07:21:55;;;;;;;7.45;1.75;;;;;;;;;;5053480;28;20025;-75
2023/08/28 07:24:20;;;;;;;5.38;1.50;;;;;;;;;;5053221;28;20020;-75
2023/08/28 07:26:46;;;;;;;3.38;1.30;;;;;;;;;;5053305;28;20365;-74
2023/08/28 07:29:11;;;;;;;3.72;1.20;;;;;;;;;;5052183;28;20396;-75
2023/08/28 07:31:36;;;;;;;3.88;1.40;;;;;;;;;;5053089;28;20491;-74
2023/08/28 07:34:04;;;;;;;2.57;1.37;;;;;;;;;;5053078;28;20029;-74
2023/08/28 07:36:29;;;;;;;3.47;1.10;;;;;;;;;;5052511;28;20353;-74
2023/08/28 07:38:55;;;;;;;3.67;1.15;;;;;;;;;;5052763;28;20115;-73
2023/08/28 07:41:20;;;;;;;4.43;1.70;;;;;;;;;;5053151;28;20051;-74
2023/08/28 07:43:45;;;;;;;2.33;1.20;;;;;;;;;;5051767;28;20064;-73
2023/08/28 07:46:11;;;;;;;2.70;1.30;;;;;;;;;;5052781;28;20029;-74
2023/08/28 07:48:36;;;;;;;5.32;1.02;;;;;;;;;;5052730;28;20028;-74
2023/08/28 07:51:01;;;;;;;1.90;1.38;;;;;;;;;;5052611;28;20384;-74
2023/08/28 07:53:27;;;;;;;4.18;1.20;;;;;;;;;;5052765;28;20067;-74
2023/08/28 07:55:52;;;;;;;2.20;1.30;;;;;;;;;;5051924;28;20112;-74
2023/08/28 07:58:18;;;;;;;2.53;1.30;;;;;;;;;;5052636;28;20106;-74
2023/08/28 08:00:43;;;;;;;4.38;1.10;;;;;;;;;;5052531;28;20024;-74
2023/08/28 08:03:09;;;;;;;4.63;1.27;;;;;;;;;;5052626;28;20498;-76
2023/08/28 08:05:34;;;;;;;2.88;1.05;;;;;;;;;;5051325;28;20025;-75
2023/08/28 08:07:59;;;;;;;2.07;1.03;;;;;;;;;;5052810;28;20085;-75
2023/08/28 08:10:25;;;;;;;3.95;1.30;;;;;;;;;;5051283;28;20672;-75
2023/08/28 08:12:50;;;;;;;9.85;2.15;;;;;;;;;;5052740;28;20025;-75
2023/08/28 08:15:15;;;;;;;5.57;1.60;;;;;;;;;;5052490;28;20107;-75
2023/08/28 08:17:40;;;;;;;2.22;1.05;;;;;;;;;;5052289;28;20262;-75
2023/08/28 08:20:10;;;;;;;3.28;1.20;;;;;;;;;;5052413;28;20063;-75
2023/08/28 08:22:37;;;;;;;2.88;1.20;;;;;;;;;;5052371;28;20021;-75
2023/08/28 08:25:03;;;;;;;1.52;1.00;;;;;;;;;;5052418;28;20514;-75
2023/08/28 08:27:29;;;;;;;1.90;1.27;;;;;;;;;;5052190;28;20048;-75
2023/08/28 08:29:54;;;;;;;2.03;1.20;;;;;;;;;;5050999;28;20464;-75
2023/08/28 08:32:19;;;;;;;1.87;1.00;;;;;;;;;;5050883;28;20348;-75
2023/08/28 08:34:45;;;;;;;1.77;1.10;;;;;;;;;;5052484;28;20273;-75
2023/08/28 08:37:10;;;;;;;5.57;1.60;;;;;;;;;;5050908;28;20254;-75
2023/08/28 08:39:35;;;;;;;3.35;1.35;;;;;;;;;;5052140;28;20039;-75
2023/08/28 08:42:01;;;;;;;2.13;1.10;;;;;;;;;;5052287;28;20071;-75
2023/08/28 08:44:26;;;;;;;3.55;1.00;;;;;;;;;;5051492;28;20029;-75
2023/08/28 08:46:52;;;;;;;1.42;1.20;;;;;;;;;;5049433;28;20033;-75
2023/08/28 08:49:21;;;;;;;2.83;1.35;;;;;;;;;;5052403;28;20111;-77
2023/08/28 08:51:50;;;;;;;2.20;1.25;;;;;;;;;;5052115;28;20465;-77
2023/08/28 08:54:20;;;;;;;1.98;1.15;;;;;;;;;;5052216;28;20025;-76
2023/08/28 08:56:49;;;;;;;3.67;1.38;;;;;;;;;;5052077;28;20399;-77
2023/08/28 08:59:15;;;;;;;1.95;1.30;;;;;;;;;;5052027;28;20021;-77
2023/08/28 09:01:42;;;;;;;2.75;1.27;;;;;;;;;;5051947;28;20102;-76
2023/08/28 09:04:08;;;;;;;2.72;1.20;;;;;;;;;;5050732;28;20036;-77
2023/08/28 09:06:36;;;;;;;3.00;1.00;;;;;;;;;;5052663;28;20027;-72
2023/08/28 09:09:05;;;;;;;1.98;1.08;;;;;;;;;;5054614;28;20028;-74
2023/08/28 09:11:31;;;;;;;1.90;1.00;;;;;;;;;;5055764;28;20063;-74
2023/08/28 09:13:57;;;;;;;1.67;1.08;;;;;;;;;;5056098;28;20504;-74
2023/08/28 09:16:23;;;;;;;3.05;1.00;;;;;;;;;;5054350;28;20123;-71
2023/08/28 09:18:49;;;;;;;2.75;1.20;;;;;;;;;;5053636;28;20059;-72
2023/08/28 09:21:14;;;;;;;2.22;1.10;;;;;;;;;;5055440;28;20060;-72
2023/08/28 09:23:44;;;;;;;2.45;1.20;;;;;;;;;;5054267;28;20025;-72
2023/08/28 09:26:20;;;;;;;5.70;1.20;;;;;;;;;;5054173;28;20025;-72
2023/08/28 09:29:06;;;;;;;1.48;1.10;;;;;;;;;;5055521;28;20067;-72
2023/08/28 09:31:33;;;;;;;3.15;1.30;;;;;;;;;;5055589;28;20033;-73
2023/08/28 09:33:59;;;;;;;1.88;1.25;;;;;;;;;;5055454;28;20021;-73
2023/08/28 09:36:25;;;;;;;2.83;1.10;;;;;;;;;;5055399;28;20040;-73
2023/08/28 09:38:50;;;;;;;2.30;1.40;;;;;;;;;;5055155;28;20024;-73
2023/08/28 09:41:16;;;;;;;2.15;1.50;;;;;;;;;;5055286;28;20032;-73
2023/08/28 09:43:41;;;;;;;2.47;1.30;;;;;;;;;;5056746;28;20055;-74
2023/08/28 09:46:07;;;;;;;2.35;1.10;;;;;;;;;;5056547;28;20104;-75
2023/08/28 09:48:34;;;;;;;4.57;1.30;;;;;;;;;;5054390;28;20088;-74
2023/08/28 09:51:04;;;;;;;2.38;1.50;;;;;;;;;;5053364;28;20016;-74
2023/08/28 09:53:30;;;;;;;2.35;1.10;;;;;;;;;;5054568;28;20025;-74
2023/08/28 09:55:57;;;;;;;1.80;1.20;;;;;;;;;;5055112;28;20043;-74
2023/08/28 09:58:26;;;;;;;3.85;1.70;;;;;;;;;;5053277;28;20079;-74
2023/08/28 10:00:54;;;;;;;5.05;1.52;;;;;;;;;;5053448;28;20025;-74
2023/08/28 10:03:21;;;;;;;3.40;1.40;;;;;;;;;;5056270;28;20025;-73
2023/08/28 10:05:47;;;;;;;4.18;1.50;;;;;;;;;;5056720;28;20029;-75
2023/08/28 10:08:15;;;;;;;2.00;1.40;;;;;;;;;;5056771;28;20017;-73
2023/08/28 10:10:45;;;;;;;2.00;1.50;;;;;;;;;;5056247;28;20029;-73
2023/08/28 10:13:13;;;;;;;6.65;1.58;;;;;;;;;;5055712;28;20017;-73
2023/08/28 10:15:44;;;;;;;1.90;1.50;;;;;;;;;;5054103;28;20112;-75
2023/08/28 10:18:27;;;;;;;3.15;1.77;;;;;;;;;;5053312;28;20025;-72
2023/08/28 10:20:59;;;;;;;4.88;1.88;;;;;;;;;;5055961;28;20055;-72
2023/08/28 10:23:25;;;;;;;4.53;1.70;;;;;;;;;;5053598;28;20051;-73
2023/08/28 10:25:53;;;;;;;3.15;1.75;;;;;;;;;;5055124;28;20404;-73
2023/08/28 10:28:19;;;;;;;3.88;1.80;;;;;;;;;;5054988;28;20048;-73
2023/08/28 10:30:46;;;;;;;1.83;1.48;;;;;;;;;;5056594;28;20044;-73
2023/08/28 10:33:13;;;;;;;3.95;1.83;;;;;;;;;;5054612;28;20024;-73
2023/08/28 10:35:40;;;;;;;3.70;2.10;;;;;;;;;;5055607;28;20028;-72
2023/08/28 10:38:06;;;;;;;6.30;2.10;;;;;;;;;;5055715;28;20036;-73
2023/08/28 10:40:31;;;;;;;3.60;1.92;;;;;;;;;;5055872;28;20072;-72
2023/08/28 10:42:57;;;;;;;4.15;2.10;;;;;;;;;;5055517;28;20476;-73
2023/08/28 10:45:23;;;;;;;3.03;2.17;;;;;;;;;;5055362;28;20396;-73
2023/08/28 10:47:49;;;;;;;4.40;2.33;;;;;;;;;;5054500;28;20469;-73
2023/08/28 10:50:14;;;;;;;5.53;2.20;;;;;;;;;;5054463;28;20029;-73
2023/08/28 10:52:40;;;;;;;3.70;1.85;;;;;;;;;;5053487;28;20017;-74
2023/08/28 10:55:06;;;;;;;2.10;1.85;;;;;;;;;;5054587;28;20036;-72
2023/08/28 10:57:31;;;;;;;3.22;2.28;;;;;;;;;;5054961;28;20025;-74
2023/08/28 11:00:13;;;;;;;4.43;2.10;;;;;;;;;;5053876;28;20032;-73
2023/08/28 11:03:02;;;;;;;3.85;2.30;;;;;;;;;;5053772;28;20033;-74
2023/08/28 11:05:27;;;;;;;3.55;1.77;;;;;;;;;;5055215;28;20021;-72
2023/08/28 11:07:53;;;;;;;4.00;1.85;;;;;;;;;;5055358;28;20387;-74
2023/08/28 11:10:20;;;;;;;3.58;1.98;;;;;;;;;;5053671;28;20486;-73
2023/08/28 11:13:06;;;;;;;3.70;1.90;;;;;;;;;;5053890;28;20024;-72
2023/08/28 11:15:42;;;;;;;3.58;1.95;;;;;;;;;;5054770;28;20029;-73
2023/08/28 11:18:19;;;;;;;2.85;1.88;;;;;;;;;;5054786;28;20029;-72
2023/08/28 11:21:05;;;;;;;6.00;1.90;;;;;;;;;;5053373;28;20028;-72
2023/08/28 11:23:39;;;;;;;10.18;1.92;;;;;;;;;;5054551;28;20029;-72
2023/08/28 11:26:26;;;;;;;3.13;1.85;;;;;;;;;;5053303;28;20021;-73
2023/08/28 11:28:52;;;;;;;4.88;1.95;;;;;;;;;;5054602;28;20025;-72
2023/08/28 11:31:19;;;;;;;5.15;1.90;;;;;;;;;;5054561;28;20071;-73
2023/08/28 11:33:49;;;;;;;4.03;2.00;;;;;;;;;;5053328;28;20119;-73
2023/08/28 11:36:17;;;;;;;9.02;2.10;;;;;;;;;;5054495;28;20039;-72
2023/08/28 11:38:42;;;;;;;3.60;2.03;;;;;;;;;;5053903;28;20484;-72
2023/08/28 11:41:10;;;;;;;5.60;2.05;;;;;;;;;;5054128;28;20113;-73
2023/08/28 11:43:42;;;;;;;2.72;1.90;;;;;;;;;;5054241;28;20032;-73
2023/08/28 11:46:10;;;;;;;2.70;1.80;;;;;;;;;;5054385;28;20090;-72
2023/08/28 11:48:36;;;;;;;7.57;2.03;;;;;;;;;;5054687;28;20029;-71
2023/08/28 11:51:03;;;;;;;3.38;1.92;;;;;;;;;;5053116;28;20013;-72
2023/08/28 11:53:34;;;;;;;3.65;2.10;;;;;;;;;;5053419;28;20112;-70
2023/08/28 11:56:01;;;;;;;3.90;2.10;;;;;;;;;;5054327;28;20017;-72
2023/08/28 11:58:27;;;;;;;3.88;1.83;;;;;;;;;;5054004;28;20021;-72
2023/08/28 12:00:52;;;;;;;4.55;1.98;;;;;;;;;;5054063;28;20029;-73
2023/08/28 12:03:18;;;;;;;4.57;2.00;;;;;;;;;;5054810;28;20052;-73
2023/08/28 12:05:44;;;;;;;5.97;1.98;;;;;;;;;;5055004;28;20033;-72
2023/08/28 12:08:09;;;;;;;2.40;1.90;;;;;;;;;;5054281;28;20086;-72
2023/08/28 12:10:35;;;;;;;3.33;2.15;;;;;;;;;;5054308;28;20396;-74
2023/08/28 12:13:00;;;;;;;2.40;2.03;;;;;;;;;;5053879;28;20542;-74
2023/08/28 12:15:30;;;;;;;3.73;2.13;;;;;;;;;;5054444;28;20051;-77
2023/08/28 12:18:03;;;;;;;2.55;2.05;;;;;;;;;;5054390;28;20257;-74
2023/08/28 12:20:33;;;;;;;4.15;2.22;;;;;;;;;;5053809;28;20108;-74
2023/08/28 12:22:59;;;;;;;3.00;2.38;;;;;;;;;;5052186;28;20392;-73
2023/08/28 12:25:34;;;;;;;3.80;2.33;;;;;;;;;;5053290;28;20489;-73
2023/08/28 12:28:06;;;;;;;4.63;2.10;;;;;;;;;;5053473;28;20108;-74
2023/08/28 12:30:31;;;;;;;3.92;2.08;;;;;;;;;;5054964;28;20029;-73
2023/08/28 12:32:57;;;;;;;3.28;2.15;;;;;;;;;;5053725;28;20028;-74
2023/08/28 12:35:22;;;;;;;4.80;2.10;;;;;;;;;;5051458;28;20070;-76
2023/08/28 12:37:51;;;;;;;2.80;2.03;;;;;;;;;;5053245;28;20025;-74
2023/08/28 12:40:16;;;;;;;3.25;2.40;;;;;;;;;;5053547;28;20372;-73
2023/08/28 12:42:41;;;;;;;2.97;1.88;;;;;;;;;;5056480;28;20028;-74
2023/08/28 12:45:07;;;;;;;2.67;2.00;;;;;;;;;;5056336;28;20388;-73
2023/08/28 12:47:32;;;;;;;2.88;1.77;;;;;;;;;;5056281;28;20296;-74
2023/08/28 12:49:57;;;;;;;2.88;2.28;;;;;;;;;;5055020;28;20128;-72
2023/08/28 12:52:23;;;;;;;3.72;2.50;;;;;;;;;;5056234;28;20476;-72
2023/08/28 12:54:48;;;;;;;5.28;2.70;;;;;;;;;;5055125;28;20025;-72
2023/08/28 12:57:14;;;;;;;2.80;2.30;;;;;;;;;;5056055;28;20480;-73
2023/08/28 12:59:39;;;;;;;4.88;2.75;;;;;;;;;;5054852;28;20071;-73
2023/08/28 13:02:04;;;;;;;3.40;2.50;;;;;;;;;;5055969;28;20485;-72
2023/08/28 13:04:30;;;;;;;4.47;2.80;;;;;;;;;;5056580;28;20074;-73
2023/08/28 13:06:55;;;;;;;4.63;2.60;;;;;;;;;;5055849;28;20057;-72
2023/08/28 13:09:21;;;;;;;3.25;2.33;;;;;;;;;;5056402;28;20025;-72
2023/08/28 13:11:47;;;;;;;4.80;2.83;;;;;;;;;;5055929;28;20025;-73
2023/08/28 13:14:12;;;;;;;3.85;2.65;;;;;;;;;;5056088;28;20021;-73
2023/08/28 13:16:38;;;;;;;3.88;2.72;;;;;;;;;;5055629;28;20361;-71
2023/08/28 13:19:04;;;;;;;5.28;3.00;;;;;;;;;;5055683;28;20387;-72
2023/08/28 13:21:32;;;;;;;4.03;2.83;;;;;;;;;;5055624;28;20113;-71
2023/08/28 13:23:57;;;;;;;5.07;3.25;;;;;;;;;;5055678;28;20029;-72
2023/08/28 13:26:23;;;;;;;8.00;4.30;;;;;;;;;;5055580;28;20028;-72
2023/08/28 13:28:49;;;;;;;7.40;3.83;;;;;;;;;;5055011;28;20502;-71
2023/08/28 13:31:16;;;;;;;5.78;3.42;;;;;;;;;;5055468;28;20029;-71
2023/08/28 13:33:41;;;;;;;5.13;3.90;;;;;;;;;;5055498;28;20429;-74
2023/08/28 13:36:07;;;;;;;6.80;4.17;;;;;;;;;;5054235;28;20109;-73
2023/08/28 13:38:35;;;;;;;8.07;3.10;;;;;;;;;;5054676;28;20784;-72
2023/08/28 13:41:02;;;;;;;8.68;4.25;;;;;;;;;;5055140;28;20025;-74
2023/08/28 13:43:27;;;;;;;5.88;4.15;;;;;;;;;;5053689;28;20271;-78
2023/08/28 13:45:53;;;;;;;5.70;3.22;;;;;;;;;;5056139;28;20021;-76
2023/08/28 13:48:18;;;;;;;4.57;2.60;;;;;;;;;;5059263;28;20441;-80
2023/08/28 13:50:44;;;;;;;5.65;2.97;;;;;;;;;;5056426;28;20064;-79
2023/08/28 13:53:09;;;;;;;4.25;3.20;;;;;;;;;;5059635;28;20032;-77
2023/08/28 13:55:36;;;;;;;3.33;2.53;;;;;;;;;;5058711;28;20055;-77
2023/08/28 13:58:02;;;;;;;5.47;3.13;;;;;;;;;;5058528;28;20051;-77
2023/08/28 14:00:28;;;;;;;5.53;3.58;;;;;;;;;;5058104;28;20036;-76
2023/08/28 14:02:53;;;;;;;6.88;4.38;;;;;;;;;;5058790;28;20029;-75
2023/08/28 14:05:18;;;;;;;3.72;3.33;;;;;;;;;;5060066;28;20032;-74
2023/08/28 14:07:44;;;;;;;5.05;3.63;;;;;;;;;;5056682;28;20035;-79
2023/08/28 14:10:10;;;;;;;7.07;3.60;;;;;;;;;;5057361;28;20021;-76
2023/08/28 14:12:36;;;;;;;3.08;2.50;;;;;;;;;;5056119;28;20021;-79
2023/08/28 14:15:03;;;;;;;5.28;2.90;;;;;;;;;;5057994;28;20036;-77
2023/08/28 14:17:28;;;;;;;4.97;3.20;;;;;;;;;;5057751;28;20119;-76
2023/08/28 14:19:54;;;;;;;6.15;2.72;;;;;;;;;;5057646;28;20056;-77
2023/08/28 14:22:19;;;;;;;3.13;2.80;;;;;;;;;;5060080;28;20021;-78
2023/08/28 14:24:44;;;;;;;3.30;2.53;;;;;;;;;;5055135;28;20602;-77
2023/08/28 14:27:09;;;;;;;3.53;2.90;;;;;;;;;;5052719;28;20437;-73
2023/08/28 14:29:35;;;;;;;5.03;3.00;;;;;;;;;;5053273;28;20029;-73
2023/08/28 14:32:00;;;;;;;3.30;3.00;;;;;;;;;;5054567;28;20063;-73
2023/08/28 14:34:25;;;;;;;4.72;3.30;;;;;;;;;;5052833;28;20029;-73
2023/08/28 14:36:50;;;;;;;4.90;3.70;;;;;;;;;;5054595;28;20029;-73
2023/08/28 14:39:16;;;;;;;5.73;3.50;;;;;;;;;;5053115;28;20276;-70